Terminal Aerodrome Forecast
Issued by NWS

Home | Current Version | Previous Version | Graphics & Text | Print | Product List | Glossary On
Versions: 1 2 3 4 5 6 7 8 9 10 11 12
000
FTUS43 KICT 260126 AAA
TAFSLN
TAF AMD
KSLN 260126Z 2601/2624 19010KT P6SM OVC250
     FM260500 VRB05KT P6SM SCT250
     FM260700 34012G22KT P6SM SCT015 OVC250
     FM261100 35014G19KT P6SM SCT009 OVC015
     FM261800 03015G22KT P6SM BKN025=

USA.gov is the U.S. government's official web portal to all federal, state and local government web resources and services.